^^
TXWeather Station Historical Data
Daily Summary for April 14, 2022 Units:  English    Metric   Both
Daily Weekly Monthly Yearly Custom
  High: Low: Average:
Temperature: 84.0 °F 57.0 °F 70.6 °F
Dew Point: 59.0 °F 44.0 °F 49.6 °F
Humidity: 72% 26% 51%
Wind Speed: 15mph 1mph 6.6mph
Wind Gust: 16mph - -
Wind- - East
Pressure: 30.1 in 30.0 in -
Precipitation: 0.000 in    
Historical Graphs
 
 
Tabular Data for April 14, 2022
Time Temperature Dew Point Pressure Wind Wind Speed Wind Gust Humidity Rainfall Rate (Hourly) solar
00:04 69.0 °F 59.0 °F 30.0 in NNE 9 mph 9 mph 71% 0.000 in 0.00 W/m2
00:09 68.0 °F 59.0 °F 30.0 in NE 8 mph 9 mph 71% 0.000 in 0.00 W/m2
00:14 68.0 °F 58.0 °F 30.0 in NNE 6 mph 8 mph 70% 0.000 in 0.00 W/m2
00:19 68.0 °F 57.0 °F 30.0 in NE 8 mph 9 mph 69% 0.000 in 0.00 W/m2
00:29 68.0 °F 57.0 °F 30.0 in NE 5 mph 6 mph 69% 0.000 in 0.00 W/m2
00:34 67.0 °F 56.0 °F 30.0 in NE 9 mph 11 mph 68% 0.000 in 0.00 W/m2
00:39 67.0 °F 56.0 °F 30.0 in NNE 9 mph 11 mph 68% 0.000 in 0.00 W/m2
00:44 67.0 °F 56.0 °F 30.0 in NE 9 mph 11 mph 67% 0.000 in 0.00 W/m2
00:49 67.0 °F 55.0 °F 30.0 in NNE 6 mph 7 mph 67% 0.000 in 0.00 W/m2
00:54 67.0 °F 55.0 °F 30.0 in NE 10 mph 10 mph 66% 0.000 in 0.00 W/m2
00:59 66.0 °F 54.0 °F 30.0 in NE 8 mph 8 mph 65% 0.000 in 0.00 W/m2
01:04 66.0 °F 54.0 °F 30.0 in NE 9 mph 9 mph 65% 0.000 in 0.00 W/m2
01:09 66.0 °F 54.0 °F 30.0 in NE 9 mph 11 mph 65% 0.000 in 0.00 W/m2
01:14 66.0 °F 54.0 °F 30.0 in NE 9 mph 9 mph 65% 0.000 in 0.00 W/m2
01:19 66.0 °F 54.0 °F 30.0 in NE 7 mph 7 mph 65% 0.000 in 0.00 W/m2
01:24 66.0 °F 54.0 °F 30.0 in NE 5 mph 8 mph 65% 0.000 in 0.00 W/m2
01:29 66.0 °F 53.0 °F 30.0 in NE 7 mph 8 mph 64% 0.000 in 0.00 W/m2
01:34 65.0 °F 53.0 °F 30.0 in NE 9 mph 9 mph 64% 0.000 in 0.00 W/m2
01:39 65.0 °F 53.0 °F 30.0 in NE 5 mph 9 mph 64% 0.000 in 0.00 W/m2
01:44 65.0 °F 52.0 °F 30.0 in NNE 5 mph 8 mph 64% 0.000 in 0.00 W/m2
01:49 65.0 °F 52.0 °F 30.0 in NE 6 mph 6 mph 64% 0.000 in 0.00 W/m2
01:54 65.0 °F 52.0 °F 30.0 in NNE 3 mph 5 mph 64% 0.000 in 0.00 W/m2
01:59 64.0 °F 52.0 °F 30.0 in NE 5 mph 6 mph 64% 0.000 in 0.00 W/m2
02:04 64.0 °F 52.0 °F 30.0 in NE 9 mph 9 mph 64% 0.000 in 0.00 W/m2
02:09 64.0 °F 51.0 °F 30.0 in NE 7 mph 7 mph 64% 0.000 in 0.00 W/m2
02:14 64.0 °F 51.0 °F 30.0 in NNE 6 mph 7 mph 64% 0.000 in 0.00 W/m2
02:19 63.0 °F 51.0 °F 30.0 in NNE 5 mph 5 mph 64% 0.000 in 0.00 W/m2
02:24 63.0 °F 51.0 °F 30.0 in NNE 4 mph 4 mph 64% 0.000 in 0.00 W/m2
02:29 63.0 °F 51.0 °F 30.0 in ENE 3 mph 4 mph 64% 0.000 in 0.00 W/m2
02:39 63.0 °F 51.0 °F 30.0 in NE 6 mph 9 mph 65% 0.000 in 0.00 W/m2
02:44 62.0 °F 50.0 °F 30.0 in NNE 5 mph 9 mph 65% 0.000 in 0.00 W/m2
02:49 62.0 °F 50.0 °F 30.0 in NE 6 mph 6 mph 65% 0.000 in 0.00 W/m2
02:54 62.0 °F 50.0 °F 30.0 in NE 4 mph 7 mph 65% 0.000 in 0.00 W/m2
02:59 62.0 °F 50.0 °F 30.0 in NE 4 mph 5 mph 65% 0.000 in 0.00 W/m2
03:04 62.0 °F 50.0 °F 30.0 in NE 5 mph 5 mph 65% 0.000 in 0.00 W/m2
03:09 62.0 °F 50.0 °F 30.0 in NE 5 mph 5 mph 65% 0.000 in 0.00 W/m2
03:14 61.0 °F 50.0 °F 30.0 in NE 5 mph 6 mph 65% 0.000 in 0.00 W/m2
03:19 61.0 °F 49.0 °F 30.0 in NE 5 mph 6 mph 65% 0.000 in 0.00 W/m2
03:24 61.0 °F 49.0 °F 30.0 in NE 5 mph 6 mph 65% 0.000 in 0.00 W/m2
03:29 61.0 °F 49.0 °F 30.0 in ENE 5 mph 5 mph 65% 0.000 in 0.00 W/m2
03:34 61.0 °F 49.0 °F 30.0 in NE 4 mph 7 mph 66% 0.000 in 0.00 W/m2
03:39 60.0 °F 49.0 °F 30.0 in NE 4 mph 4 mph 65% 0.000 in 0.00 W/m2
03:44 60.0 °F 48.0 °F 30.0 in NE 6 mph 10 mph 65% 0.000 in 0.00 W/m2
03:49 60.0 °F 48.0 °F 30.0 in NE 9 mph 10 mph 65% 0.000 in 0.00 W/m2
03:54 60.0 °F 48.0 °F 30.0 in NNE 9 mph 10 mph 65% 0.000 in 0.00 W/m2
03:59 60.0 °F 48.0 °F 30.0 in NE 8 mph 10 mph 65% 0.000 in 0.00 W/m2
04:04 60.0 °F 48.0 °F 30.0 in NNE 6 mph 8 mph 65% 0.000 in 0.00 W/m2
04:09 60.0 °F 48.0 °F 30.0 in NE 5 mph 5 mph 65% 0.000 in 0.00 W/m2
04:14 60.0 °F 48.0 °F 30.0 in NE 5 mph 6 mph 66% 0.000 in 0.00 W/m2
04:19 60.0 °F 48.0 °F 30.0 in ENE 6 mph 6 mph 66% 0.000 in 0.00 W/m2
04:24 60.0 °F 48.0 °F 30.0 in NE 7 mph 9 mph 66% 0.000 in 0.00 W/m2
04:29 59.0 °F 48.0 °F 30.0 in NE 4 mph 4 mph 66% 0.000 in 0.00 W/m2
04:34 59.0 °F 48.0 °F 30.0 in NE 6 mph 6 mph 66% 0.000 in 0.00 W/m2
04:39 59.0 °F 48.0 °F 30.0 in ENE 4 mph 6 mph 66% 0.000 in 0.00 W/m2
04:44 59.0 °F 48.0 °F 30.0 in NE 8 mph 8 mph 66% 0.000 in 0.00 W/m2
04:49 59.0 °F 48.0 °F 30.0 in ENE 7 mph 8 mph 66% 0.000 in 0.00 W/m2
04:54 59.0 °F 48.0 °F 30.0 in NNE 6 mph 9 mph 66% 0.000 in 0.00 W/m2
04:59 59.0 °F 48.0 °F 30.0 in ENE 7 mph 7 mph 66% 0.000 in 0.00 W/m2
05:04 59.0 °F 48.0 °F 30.0 in NE 6 mph 8 mph 66% 0.000 in 0.00 W/m2
05:09 59.0 °F 48.0 °F 30.0 in ENE 8 mph 8 mph 66% 0.000 in 0.00 W/m2
05:14 59.0 °F 48.0 °F 30.0 in ENE 7 mph 8 mph 66% 0.000 in 0.00 W/m2
05:19 59.0 °F 48.0 °F 30.0 in NE 6 mph 8 mph 66% 0.000 in 0.00 W/m2
05:24 59.0 °F 48.0 °F 30.0 in ENE 5 mph 8 mph 66% 0.000 in 0.00 W/m2
05:29 59.0 °F 48.0 °F 30.0 in East 7 mph 10 mph 66% 0.000 in 0.00 W/m2
05:34 59.0 °F 47.0 °F 30.0 in ENE 4 mph 4 mph 66% 0.000 in 0.00 W/m2
05:39 59.0 °F 47.0 °F 30.0 in East 6 mph 7 mph 66% 0.000 in 0.00 W/m2
05:44 59.0 °F 47.0 °F 30.0 in NE 5 mph 7 mph 66% 0.000 in 0.00 W/m2
05:49 59.0 °F 47.0 °F 30.0 in ENE 7 mph 8 mph 66% 0.000 in 0.00 W/m2
05:54 59.0 °F 48.0 °F 30.0 in ENE 9 mph 9 mph 67% 0.000 in 0.00 W/m2
05:59 59.0 °F 48.0 °F 30.0 in East 6 mph 8 mph 67% 0.000 in 0.00 W/m2
06:04 59.0 °F 48.0 °F 30.0 in ENE 6 mph 9 mph 67% 0.000 in 0.00 W/m2
06:09 59.0 °F 48.0 °F 30.0 in ENE 7 mph 7 mph 68% 0.000 in 0.00 W/m2
06:14 58.0 °F 48.0 °F 30.0 in ENE 4 mph 7 mph 68% 0.000 in 0.00 W/m2
06:19 58.0 °F 48.0 °F 30.0 in NE 4 mph 5 mph 68% 0.000 in 0.00 W/m2
06:24 58.0 °F 48.0 °F 30.0 in NNE 3 mph 4 mph 68% 0.000 in 0.00 W/m2
06:29 58.0 °F 48.0 °F 30.0 in NE 5 mph 7 mph 69% 0.000 in 0.00 W/m2
06:34 58.0 °F 48.0 °F 30.0 in NNE 3 mph 4 mph 69% 0.000 in 0.00 W/m2
06:39 58.0 °F 48.0 °F 30.0 in ENE 5 mph 6 mph 69% 0.000 in 0.00 W/m2
06:44 58.0 °F 48.0 °F 30.0 in ENE 8 mph 8 mph 69% 0.000 in 0.00 W/m2
06:49 58.0 °F 48.0 °F 30.0 in NE 3 mph 8 mph 70% 0.000 in 0.00 W/m2
06:54 58.0 °F 48.0 °F 30.0 in ENE 4 mph 6 mph 70% 0.000 in 0.00 W/m2
06:59 57.0 °F 48.0 °F 30.0 in ENE 3 mph 6 mph 70% 0.000 in 0.00 W/m2
07:04 57.0 °F 48.0 °F 30.0 in NE 6 mph 6 mph 70% 0.000 in 7.00 W/m2
07:09 57.0 °F 48.0 °F 30.0 in NE 3 mph 6 mph 71% 0.000 in 11.00 W/m2
07:14 57.0 °F 48.0 °F 30.0 in ENE 3 mph 3 mph 71% 0.000 in 12.00 W/m2
07:19 57.0 °F 48.0 °F 30.0 in NE 6 mph 6 mph 71% 0.000 in 16.00 W/m2
07:24 57.0 °F 48.0 °F 30.0 in East 4 mph 7 mph 71% 0.000 in 18.00 W/m2
07:29 57.0 °F 48.0 °F 30.0 in ENE 4 mph 4 mph 71% 0.000 in 21.00 W/m2
07:34 57.0 °F 48.0 °F 30.0 in NE 3 mph 4 mph 72% 0.000 in 23.00 W/m2
07:39 57.0 °F 48.0 °F 30.0 in ENE 3 mph 4 mph 72% 0.000 in 26.00 W/m2
07:44 57.0 °F 48.0 °F 30.0 in NE 4 mph 5 mph 72% 0.000 in 28.00 W/m2
07:49 57.0 °F 48.0 °F 30.1 in NE 5 mph 5 mph 72% 0.000 in 35.00 W/m2
07:54 57.0 °F 48.0 °F 30.1 in ENE 7 mph 7 mph 72% 0.000 in 39.00 W/m2
07:59 57.0 °F 48.0 °F 30.1 in ENE 6 mph 6 mph 72% 0.000 in 42.00 W/m2
08:04 58.0 °F 49.0 °F 30.1 in ENE 5 mph 5 mph 72% 0.000 in 40.00 W/m2
08:09 58.0 °F 49.0 °F 30.1 in NE 6 mph 6 mph 72% 0.000 in 42.00 W/m2
08:14 58.0 °F 49.0 °F 30.1 in ENE 10 mph 10 mph 72% 0.000 in 49.00 W/m2
08:19 59.0 °F 50.0 °F 30.1 in ENE 6 mph 7 mph 72% 0.000 in 60.00 W/m2
08:24 59.0 °F 50.0 °F 30.1 in NE 5 mph 7 mph 72% 0.000 in 83.00 W/m2
08:29 59.0 °F 50.0 °F 30.1 in East 9 mph 9 mph 71% 0.000 in 125.00 W/m2
08:34 59.0 °F 50.0 °F 30.1 in NE 7 mph 9 mph 71% 0.000 in 120.00 W/m2
08:39 60.0 °F 50.0 °F 30.1 in ENE 8 mph 9 mph 71% 0.000 in 116.00 W/m2
08:44 60.0 °F 50.0 °F 30.1 in ENE 7 mph 8 mph 70% 0.000 in 220.00 W/m2
08:49 60.0 °F 50.0 °F 30.1 in ENE 10 mph 11 mph 69% 0.000 in 257.00 W/m2
08:54 61.0 °F 50.0 °F 30.1 in East 8 mph 10 mph 69% 0.000 in 271.00 W/m2
08:59 62.0 °F 51.0 °F 30.1 in ENE 9 mph 10 mph 68% 0.000 in 292.00 W/m2
09:04 62.0 °F 51.0 °F 30.1 in East 9 mph 9 mph 67% 0.000 in 315.00 W/m2
09:09 63.0 °F 51.0 °F 30.1 in ENE 5 mph 9 mph 66% 0.000 in 334.00 W/m2
09:14 63.0 °F 51.0 °F 30.1 in East 10 mph 11 mph 66% 0.000 in 371.00 W/m2
09:19 64.0 °F 51.0 °F 30.1 in East 11 mph 14 mph 64% 0.000 in 411.00 W/m2
09:24 65.0 °F 51.0 °F 30.1 in ESE 11 mph 14 mph 63% 0.000 in 443.00 W/m2
09:29 65.0 °F 51.0 °F 30.1 in East 6 mph 7 mph 61% 0.000 in 473.00 W/m2
09:34 66.0 °F 51.0 °F 30.1 in East 7 mph 8 mph 61% 0.000 in 499.00 W/m2
09:39 66.0 °F 51.0 °F 30.1 in East 10 mph 10 mph 60% 0.000 in 520.00 W/m2
09:44 67.0 °F 51.0 °F 30.1 in ESE 13 mph 13 mph 58% 0.000 in 536.00 W/m2
09:49 68.0 °F 51.0 °F 30.1 in East 7 mph 13 mph 57% 0.000 in 555.00 W/m2
09:54 68.0 °F 51.0 °F 30.1 in ESE 9 mph 9 mph 56% 0.000 in 575.00 W/m2
09:59 68.0 °F 51.0 °F 30.1 in East 9 mph 11 mph 55% 0.000 in 591.00 W/m2
10:04 69.0 °F 51.0 °F 30.1 in East 5 mph 5 mph 54% 0.000 in 606.00 W/m2
10:09 69.0 °F 51.0 °F 30.1 in ENE 10 mph 10 mph 52% 0.000 in 626.00 W/m2
10:14 70.0 °F 49.0 °F 30.1 in ENE 13 mph 13 mph 48% 0.000 in 629.00 W/m2
10:19 70.0 °F 49.0 °F 30.1 in ENE 11 mph 12 mph 48% 0.000 in 640.00 W/m2
10:24 70.0 °F 50.0 °F 30.1 in ESE 8 mph 9 mph 49% 0.000 in 707.00 W/m2
10:29 71.0 °F 50.0 °F 30.1 in ENE 11 mph 11 mph 49% 0.000 in 707.00 W/m2
10:34 71.0 °F 50.0 °F 30.1 in ENE 10 mph 11 mph 48% 0.000 in 656.00 W/m2
10:39 71.0 °F 50.0 °F 30.1 in ENE 6 mph 9 mph 47% 0.000 in 759.00 W/m2
10:44 72.0 °F 49.0 °F 30.1 in ENE 10 mph 13 mph 45% 0.000 in 754.00 W/m2
10:49 72.0 °F 49.0 °F 30.1 in ENE 7 mph 13 mph 45% 0.000 in 758.00 W/m2
10:54 73.0 °F 51.0 °F 30.1 in ESE 10 mph 10 mph 46% 0.000 in 761.00 W/m2
10:59 73.0 °F 51.0 °F 30.1 in NE 11 mph 11 mph 46% 0.000 in 809.00 W/m2
11:04 73.0 °F 50.0 °F 30.1 in ENE 7 mph 7 mph 45% 0.000 in 824.00 W/m2
11:09 74.0 °F 50.0 °F 30.1 in East 9 mph 11 mph 43% 0.000 in 846.00 W/m2
11:14 74.0 °F 50.0 °F 30.1 in ENE 9 mph 9 mph 42% 0.000 in 844.00 W/m2
11:19 74.0 °F 50.0 °F 30.1 in ESE 11 mph 11 mph 42% 0.000 in 844.00 W/m2
11:24 75.0 °F 51.0 °F 30.1 in NE 7 mph 11 mph 43% 0.000 in 837.00 W/m2
11:29 75.0 °F 50.0 °F 30.1 in ENE 8 mph 9 mph 42% 0.000 in 846.00 W/m2
11:34 75.0 °F 49.0 °F 30.1 in NE 10 mph 10 mph 40% 0.000 in 858.00 W/m2
11:39 76.0 °F 50.0 °F 30.1 in East 8 mph 10 mph 40% 0.000 in 877.00 W/m2
11:44 76.0 °F 51.0 °F 30.1 in ESE 6 mph 10 mph 41% 0.000 in 902.00 W/m2
11:49 77.0 °F 50.0 °F 30.1 in ESE 10 mph 10 mph 39% 0.000 in 926.00 W/m2
11:54 77.0 °F 48.0 °F 30.1 in ESE 12 mph 12 mph 36% 0.000 in 942.00 W/m2
11:59 77.0 °F 49.0 °F 30.1 in ESE 11 mph 12 mph 37% 0.000 in 949.00 W/m2
12:04 78.0 °F 49.0 °F 30.1 in SE 8 mph 11 mph 36% 0.000 in 940.00 W/m2
12:09 78.0 °F 50.0 °F 30.1 in SE 9 mph 10 mph 37% 0.000 in 891.00 W/m2
12:14 78.0 °F 50.0 °F 30.1 in ESE 7 mph 8 mph 37% 0.000 in 891.00 W/m2
12:19 78.0 °F 48.0 °F 30.1 in East 9 mph 11 mph 34% 0.000 in 891.00 W/m2
12:24 78.0 °F 48.0 °F 30.1 in East 11 mph 11 mph 34% 0.000 in 856.00 W/m2
12:29 78.0 °F 48.0 °F 30.1 in ESE 10 mph 11 mph 35% 0.000 in 879.00 W/m2
12:34 78.0 °F 49.0 °F 30.1 in ESE 11 mph 11 mph 35% 0.000 in 937.00 W/m2
12:39 79.0 °F 49.0 °F 30.1 in ESE 9 mph 9 mph 35% 0.000 in 942.00 W/m2
12:44 79.0 °F 50.0 °F 30.1 in ESE 11 mph 11 mph 36% 0.000 in 970.00 W/m2
12:49 80.0 °F 50.0 °F 30.1 in East 6 mph 7 mph 35% 0.000 in 967.00 W/m2
12:54 80.0 °F 50.0 °F 30.1 in ENE 5 mph 9 mph 35% 0.000 in 963.00 W/m2
12:59 80.0 °F 52.0 °F 30.1 in ESE 7 mph 8 mph 38% 0.000 in 963.00 W/m2
13:04 80.0 °F 50.0 °F 30.1 in East 9 mph 9 mph 35% 0.000 in 967.00 W/m2
13:09 81.0 °F 49.0 °F 30.1 in ESE 9 mph 12 mph 33% 0.000 in 969.00 W/m2
13:14 81.0 °F 48.0 °F 30.1 in SE 12 mph 14 mph 32% 0.000 in 969.00 W/m2
13:19 80.0 °F 49.0 °F 30.1 in ESE 15 mph 15 mph 33% 0.000 in 969.00 W/m2
13:24 80.0 °F 51.0 °F 30.1 in ESE 12 mph 12 mph 36% 0.000 in 969.00 W/m2
13:29 80.0 °F 49.0 °F 30.1 in East 8 mph 11 mph 35% 0.000 in 967.00 W/m2
13:34 80.0 °F 49.0 °F 30.1 in ESE 8 mph 11 mph 34% 0.000 in 967.00 W/m2
13:39 80.0 °F 49.0 °F 30.1 in SE 11 mph 14 mph 34% 0.000 in 963.00 W/m2
13:44 80.0 °F 51.0 °F 30.1 in East 9 mph 10 mph 36% 0.000 in 963.00 W/m2
13:49 81.0 °F 50.0 °F 30.1 in ESE 8 mph 11 mph 35% 0.000 in 960.00 W/m2
13:54 81.0 °F 51.0 °F 30.1 in ESE 8 mph 10 mph 35% 0.000 in 953.00 W/m2
13:59 81.0 °F 51.0 °F 30.1 in SE 15 mph 16 mph 35% 0.000 in 954.00 W/m2
14:04 81.0 °F 50.0 °F 30.1 in SE 11 mph 16 mph 34% 0.000 in 949.00 W/m2
14:09 81.0 °F 50.0 °F 30.1 in ESE 10 mph 12 mph 34% 0.000 in 944.00 W/m2
14:14 81.0 °F 48.0 °F 30.1 in SE 10 mph 12 mph 32% 0.000 in 940.00 W/m2
14:19 81.0 °F 51.0 °F 30.1 in SE 13 mph 13 mph 35% 0.000 in 935.00 W/m2
14:24 81.0 °F 51.0 °F 30.1 in SE 11 mph 12 mph 35% 0.000 in 932.00 W/m2
14:29 82.0 °F 50.0 °F 30.1 in SE 9 mph 9 mph 34% 0.000 in 926.00 W/m2
14:34 82.0 °F 48.0 °F 30.1 in ESE 10 mph 10 mph 31% 0.000 in 923.00 W/m2
14:39 82.0 °F 47.0 °F 30.1 in ESE 10 mph 11 mph 30% 0.000 in 926.00 W/m2
14:44 82.0 °F 49.0 °F 30.1 in East 11 mph 11 mph 32% 0.000 in 914.00 W/m2
14:49 82.0 °F 50.0 °F 30.1 in East 10 mph 11 mph 33% 0.000 in 904.00 W/m2
14:54 82.0 °F 50.0 °F 30.1 in ENE 11 mph 11 mph 32% 0.000 in 893.00 W/m2
14:59 82.0 °F 51.0 °F 30.1 in ENE 13 mph 13 mph 34% 0.000 in 888.00 W/m2
15:04 83.0 °F 49.0 °F 30.1 in SE 8 mph 8 mph 31% 0.000 in 877.00 W/m2
15:09 83.0 °F 50.0 °F 30.1 in ESE 9 mph 9 mph 32% 0.000 in 867.00 W/m2
15:14 83.0 °F 48.0 °F 30.1 in East 9 mph 9 mph 30% 0.000 in 851.00 W/m2
15:19 83.0 °F 49.0 °F 30.1 in SE 9 mph 11 mph 31% 0.000 in 842.00 W/m2
15:24 83.0 °F 51.0 °F 30.1 in SE 8 mph 9 mph 33% 0.000 in 842.00 W/m2
15:29 83.0 °F 51.0 °F 30.1 in East 7 mph 9 mph 33% 0.000 in 828.00 W/m2
15:34 83.0 °F 49.0 °F 30.1 in ESE 6 mph 6 mph 31% 0.000 in 803.00 W/m2
15:39 83.0 °F 48.0 °F 30.0 in ENE 13 mph 13 mph 30% 0.000 in 788.00 W/m2
15:44 83.0 °F 49.0 °F 30.0 in ENE 7 mph 8 mph 31% 0.000 in 780.00 W/m2
15:49 83.0 °F 47.0 °F 30.0 in East 6 mph 11 mph 28% 0.000 in 770.00 W/m2
15:54 83.0 °F 48.0 °F 30.0 in ESE 10 mph 11 mph 29% 0.000 in 763.00 W/m2
15:59 83.0 °F 47.0 °F 30.0 in ENE 5 mph 9 mph 29% 0.000 in 749.00 W/m2
16:04 83.0 °F 51.0 °F 30.0 in SE 10 mph 11 mph 33% 0.000 in 738.00 W/m2
16:09 83.0 °F 48.0 °F 30.0 in NE 11 mph 11 mph 30% 0.000 in 721.00 W/m2
16:14 83.0 °F 46.0 °F 30.0 in NE 10 mph 10 mph 27% 0.000 in 712.00 W/m2
16:19 83.0 °F 46.0 °F 30.0 in East 9 mph 10 mph 27% 0.000 in 712.00 W/m2
16:24 83.0 °F 48.0 °F 30.0 in East 9 mph 10 mph 29% 0.000 in 703.00 W/m2
16:34 84.0 °F 48.0 °F 30.0 in SE 10 mph 11 mph 29% 0.000 in 705.00 W/m2
16:39 84.0 °F 50.0 °F 30.0 in ESE 7 mph 10 mph 31% 0.000 in 712.00 W/m2
16:44 84.0 °F 46.0 °F 30.0 in ENE 9 mph 10 mph 27% 0.000 in 664.00 W/m2
16:49 83.0 °F 46.0 °F 30.0 in ENE 10 mph 14 mph 27% 0.000 in 195.00 W/m2
16:54 83.0 °F 50.0 °F 30.0 in ESE 7 mph 7 mph 32% 0.000 in 612.00 W/m2
16:59 83.0 °F 50.0 °F 30.0 in ESE 7 mph 9 mph 32% 0.000 in 589.00 W/m2
17:04 83.0 °F 47.0 °F 30.0 in East 8 mph 8 mph 29% 0.000 in 555.00 W/m2
17:09 83.0 °F 46.0 °F 30.0 in ESE 8 mph 10 mph 28% 0.000 in 533.00 W/m2
17:14 83.0 °F 46.0 °F 30.0 in ESE 10 mph 10 mph 28% 0.000 in 526.00 W/m2
17:19 83.0 °F 46.0 °F 30.0 in ESE 8 mph 10 mph 28% 0.000 in 503.00 W/m2
17:24 83.0 °F 46.0 °F 30.0 in East 11 mph 11 mph 28% 0.000 in 476.00 W/m2
17:29 83.0 °F 46.0 °F 30.0 in ESE 10 mph 12 mph 27% 0.000 in 452.00 W/m2
17:34 83.0 °F 46.0 °F 30.0 in East 11 mph 12 mph 27% 0.000 in 434.00 W/m2
17:39 83.0 °F 45.0 °F 30.0 in East 8 mph 9 mph 27% 0.000 in 415.00 W/m2
17:44 83.0 °F 44.0 °F 30.0 in ENE 7 mph 11 mph 26% 0.000 in 401.00 W/m2
17:49 83.0 °F 45.0 °F 30.0 in East 8 mph 11 mph 27% 0.000 in 385.00 W/m2
17:54 83.0 °F 46.0 °F 30.0 in East 11 mph 12 mph 27% 0.000 in 364.00 W/m2
17:59 83.0 °F 45.0 °F 30.0 in East 8 mph 12 mph 27% 0.000 in 341.00 W/m2
18:04 83.0 °F 46.0 °F 30.0 in East 7 mph 8 mph 28% 0.000 in 327.00 W/m2
18:09 83.0 °F 46.0 °F 30.0 in East 9 mph 9 mph 28% 0.000 in 309.00 W/m2
18:14 83.0 °F 47.0 °F 30.0 in East 7 mph 8 mph 29% 0.000 in 290.00 W/m2
18:19 82.0 °F 46.0 °F 30.0 in ESE 8 mph 9 mph 28% 0.000 in 271.00 W/m2
18:24 82.0 °F 47.0 °F 30.0 in SE 9 mph 10 mph 29% 0.000 in 251.00 W/m2
18:29 82.0 °F 47.0 °F 30.0 in ESE 10 mph 10 mph 29% 0.000 in 230.00 W/m2
18:34 82.0 °F 47.0 °F 30.0 in ESE 8 mph 10 mph 29% 0.000 in 207.00 W/m2
18:39 82.0 °F 46.0 °F 30.0 in ESE 7 mph 8 mph 29% 0.000 in 188.00 W/m2
18:44 82.0 °F 47.0 °F 30.0 in ESE 4 mph 8 mph 30% 0.000 in 167.00 W/m2
18:49 82.0 °F 47.0 °F 30.0 in ESE 5 mph 6 mph 30% 0.000 in 144.00 W/m2
18:54 81.0 °F 47.0 °F 30.0 in ESE 4 mph 6 mph 30% 0.000 in 49.00 W/m2
18:59 81.0 °F 48.0 °F 30.0 in ESE 7 mph 7 mph 31% 0.000 in 44.00 W/m2
19:04 81.0 °F 48.0 °F 30.0 in East 4 mph 7 mph 31% 0.000 in 39.00 W/m2
19:09 81.0 °F 48.0 °F 30.0 in ESE 4 mph 7 mph 32% 0.000 in 35.00 W/m2
19:14 80.0 °F 48.0 °F 30.0 in SE 6 mph 7 mph 32% 0.000 in 30.00 W/m2
19:19 80.0 °F 47.0 °F 30.0 in ESE 7 mph 7 mph 32% 0.000 in 26.00 W/m2
19:24 79.0 °F 48.0 °F 30.0 in East 6 mph 6 mph 33% 0.000 in 23.00 W/m2
19:29 79.0 °F 48.0 °F 30.0 in ESE 6 mph 8 mph 33% 0.000 in 19.00 W/m2
19:34 79.0 °F 47.0 °F 30.0 in East 5 mph 6 mph 33% 0.000 in 16.00 W/m2
19:39 78.0 °F 48.0 °F 30.0 in East 3 mph 3 mph 34% 0.000 in 12.00 W/m2
19:44 78.0 °F 49.0 °F 30.0 in ESE 4 mph 4 mph 36% 0.000 in 7.00 W/m2
19:49 78.0 °F 49.0 °F 30.0 in ESE 4 mph 4 mph 36% 0.000 in 5.00 W/m2
19:54 77.0 °F 48.0 °F 30.0 in SE 4 mph 4 mph 35% 0.000 in 0.00 W/m2
19:59 77.0 °F 48.0 °F 30.0 in SSE 4 mph 5 mph 36% 0.000 in 0.00 W/m2
20:04 77.0 °F 48.0 °F 30.0 in SE 3 mph 7 mph 36% 0.000 in 0.00 W/m2
20:09 76.0 °F 49.0 °F 30.0 in ESE 3 mph 3 mph 38% 0.000 in 0.00 W/m2
20:14 76.0 °F 48.0 °F 30.0 in East 3 mph 3 mph 37% 0.000 in 0.00 W/m2
20:19 75.0 °F 47.0 °F 30.0 in ENE 2 mph 3 mph 36% 0.000 in 0.00 W/m2
20:24 75.0 °F 47.0 °F 30.0 in ENE 1 mph 3 mph 37% 0.000 in 0.00 W/m2
20:29 75.0 °F 47.0 °F 30.0 in ENE 1 mph 1 mph 37% 0.000 in 0.00 W/m2
20:34 74.0 °F 47.0 °F 30.0 in ENE 2 mph 2 mph 38% 0.000 in 0.00 W/m2
20:39 74.0 °F 47.0 °F 30.0 in ENE 1 mph 2 mph 38% 0.000 in 0.00 W/m2
20:44 74.0 °F 47.0 °F 30.0 in ENE 1 mph 1 mph 38% 0.000 in 0.00 W/m2
20:49 73.0 °F 47.0 °F 30.0 in ENE 1 mph 1 mph 39% 0.000 in 0.00 W/m2
20:54 73.0 °F 47.0 °F 30.0 in ENE 1 mph 1 mph 39% 0.000 in 0.00 W/m2
20:59 73.0 °F 47.0 °F 30.0 in ENE 2 mph 2 mph 40% 0.000 in 0.00 W/m2
21:04 72.0 °F 47.0 °F 30.0 in ENE 1 mph 2 mph 41% 0.000 in 0.00 W/m2
21:09 72.0 °F 47.0 °F 30.0 in ENE 1 mph 2 mph 41% 0.000 in 0.00 W/m2
21:14 72.0 °F 47.0 °F 30.0 in ENE 2 mph 2 mph 41% 0.000 in 0.00 W/m2
21:19 71.0 °F 46.0 °F 30.0 in ESE 3 mph 4 mph 41% 0.000 in 0.00 W/m2
21:24 71.0 °F 47.0 °F 30.0 in ESE 4 mph 5 mph 42% 0.000 in 0.00 W/m2
21:29 71.0 °F 47.0 °F 30.0 in SE 3 mph 5 mph 43% 0.000 in 0.00 W/m2
21:34 71.0 °F 48.0 °F 30.0 in SE 3 mph 4 mph 45% 0.000 in 0.00 W/m2
21:39 70.0 °F 49.0 °F 30.0 in ESE 3 mph 3 mph 46% 0.000 in 0.00 W/m2
21:44 70.0 °F 50.0 °F 30.0 in ESE 4 mph 5 mph 48% 0.000 in 0.00 W/m2
21:49 70.0 °F 50.0 °F 30.0 in ESE 4 mph 6 mph 49% 0.000 in 0.00 W/m2
21:54 70.0 °F 51.0 °F 30.0 in ESE 4 mph 4 mph 51% 0.000 in 0.00 W/m2
21:59 70.0 °F 51.0 °F 30.0 in ESE 3 mph 3 mph 52% 0.000 in 0.00 W/m2
22:04 70.0 °F 51.0 °F 30.0 in ESE 2 mph 4 mph 52% 0.000 in 0.00 W/m2
22:09 70.0 °F 52.0 °F 30.0 in ESE 2 mph 2 mph 53% 0.000 in 0.00 W/m2
22:14 69.0 °F 52.0 °F 30.0 in ESE 1 mph 2 mph 53% 0.000 in 0.00 W/m2
22:19 69.0 °F 52.0 °F 30.0 in ESE 3 mph 3 mph 55% 0.000 in 0.00 W/m2
22:24 69.0 °F 53.0 °F 30.0 in SE 6 mph 6 mph 56% 0.000 in 0.00 W/m2
22:29 69.0 °F 53.0 °F 30.0 in SE 4 mph 4 mph 58% 0.000 in 0.00 W/m2
22:34 69.0 °F 54.0 °F 30.0 in SE 4 mph 4 mph 59% 0.000 in 0.00 W/m2
22:39 69.0 °F 54.0 °F 30.0 in SE 3 mph 3 mph 59% 0.000 in 0.00 W/m2
22:44 68.0 °F 54.0 °F 30.0 in SE 3 mph 3 mph 61% 0.000 in 0.00 W/m2
22:49 68.0 °F 55.0 °F 30.0 in SE 3 mph 4 mph 62% 0.000 in 0.00 W/m2
22:54 68.0 °F 55.0 °F 30.0 in SE 1 mph 2 mph 62% 0.000 in 0.00 W/m2
22:59 68.0 °F 55.0 °F 30.0 in SE 2 mph 2 mph 62% 0.000 in 0.00 W/m2
23:04 68.0 °F 55.0 °F 30.0 in SE 3 mph 3 mph 63% 0.000 in 0.00 W/m2
23:09 68.0 °F 55.0 °F 30.0 in SE 1 mph 2 mph 64% 0.000 in 0.00 W/m2
23:14 68.0 °F 55.0 °F 30.0 in SE 2 mph 2 mph 64% 0.000 in 0.00 W/m2
23:19 68.0 °F 55.0 °F 30.0 in SE 3 mph 3 mph 64% 0.000 in 0.00 W/m2
23:24 67.0 °F 55.0 °F 30.0 in SE 2 mph 3 mph 65% 0.000 in 0.00 W/m2
23:29 67.0 °F 55.0 °F 30.0 in SE 2 mph 3 mph 66% 0.000 in 0.00 W/m2
23:34 67.0 °F 55.0 °F 30.0 in SE 2 mph 2 mph 66% 0.000 in 0.00 W/m2
23:39 67.0 °F 55.0 °F 30.0 in ESE 2 mph 2 mph 67% 0.000 in 0.00 W/m2
23:44 67.0 °F 55.0 °F 30.0 in ESE 2 mph 2 mph 67% 0.000 in 0.00 W/m2
23:49 67.0 °F 56.0 °F 30.0 in ESE 1 mph 2 mph 68% 0.000 in 0.00 W/m2
23:54 66.0 °F 56.0 °F 30.0 in ESE 1 mph 2 mph 69% 0.000 in 0.00 W/m2
23:59 66.0 °F 56.0 °F 30.0 in ESE 1 mph 2 mph 69% 0.000 in 0.00 W/m2
Villages of Bridgestone, Spring, TX USA
Compliments of Weather Underground - 4 mb